PWSweather.com
Personal Weather Stations
Station Observations
ME1989
Sicily, Barcellona Pozzo Di GottoIT

SicilyBarcellona Pozzo Di GottoIT

Lat: 38.1487398, Lon: 15.2113962

Elevation: 131

Station Type: Peet Bros

Latest ConditionsUpdated 11:10:01 PM GMT+01:01 Friday, May 29, 2015
Currently Today's Max Today's Min Today's Average
Temperature 63.0°F17.2°C 70.3°F21.3°C 61.2°F16.2°C 66.5°F19.2°C
Dew Point 56.7°F13.7°C 60.3°F15.7°C 55.3°F12.9°C 57.4°F14.1°C
Winds 2.3 mph S3.7 kmh S 15.0 mph WNW24.1 kmh WNW - 6.5 mph 10.5 kmh
Wind Gusts 3.5 mph5.6 kmh 20.7 mph33.3 kmh - -
Humidity 80% 82% 62% 73%
Pressure 30.02 in1016.6 mb 30.06 in1017.9 mb 30.00 in1015.9 mb -
Hour Temp Dew Point Humidity Winds Wind Gusts Pressure Precip Precip Rate Daily Precip Total
11:10 PM 63.0°F17.2°C 56.7°F13.7°C 80% 2.3 mph S3.7 kmh S 3.5 mph5.6 kmh 30.02 in1016.6 mb - 0.00 in0.0 mm 0.00 in0.0 mm
11:00 PM 63.1°F17.3°C 56.9°F13.8°C 80% 2.3 mph S3.7 kmh S 3.5 mph5.6 kmh 30.03 in1016.9 mb - 0.00 in0.0 mm 0.00 in0.0 mm
10:50 PM 63.2°F17.3°C 56.9°F13.8°C 80% Calm Calm -- 30.03 in1016.9 mb - 0.00 in0.0 mm 0.00 in0.0 mm
10:40 PM 63.2°F17.3°C 56.9°F13.8°C 80% 4.6 mph S7.4 kmh S 4.6 mph7.4 kmh 30.03 in1016.9 mb - 0.00 in0.0 mm 0.00 in0.0 mm
10:30 PM 63.6°F17.6°C 57.0°F13.9°C 79% 3.5 mph S5.6 kmh S 4.6 mph7.4 kmh 30.03 in1016.9 mb - 0.00 in0.0 mm 0.00 in0.0 mm
10:20 PM 64.0°F17.8°C 57.3°F14.1°C 79% 3.5 mph S5.6 kmh S 3.5 mph5.6 kmh 30.03 in1016.9 mb - 0.00 in0.0 mm 0.00 in0.0 mm
10:10 PM 63.8°F17.7°C 56.8°F13.8°C 78% 4.6 mph S7.4 kmh S 6.9 mph11.1 kmh 30.03 in1016.9 mb - 0.00 in0.0 mm 0.00 in0.0 mm
10:00 PM 63.8°F17.7°C 57.1°F13.9°C 79% 3.5 mph SSW5.6 kmh SSW 4.6 mph7.4 kmh 30.03 in1016.9 mb - 0.00 in0.0 mm 0.00 in0.0 mm
09:50 PM 63.8°F17.7°C 57.2°F14.0°C 79% 4.6 mph S7.4 kmh S 5.8 mph9.3 kmh 30.03 in1016.9 mb - 0.00 in0.0 mm 0.00 in0.0 mm
09:40 PM 63.9°F17.7°C 57.6°F14.2°C 80% 3.5 mph S5.6 kmh S 5.8 mph9.3 kmh 30.03 in1016.9 mb - 0.00 in0.0 mm 0.00 in0.0 mm
09:30 PM 64.2°F17.9°C 57.9°F14.4°C 80% 3.5 mph S5.6 kmh S 4.6 mph7.4 kmh 30.03 in1016.9 mb - 0.00 in0.0 mm 0.00 in0.0 mm
09:20 PM 64.6°F18.1°C 58.3°F14.6°C 80% 4.6 mph S7.4 kmh S 4.6 mph7.4 kmh 30.03 in1016.9 mb - 0.00 in0.0 mm 0.00 in0.0 mm
09:10 PM 64.7°F18.2°C 57.7°F14.3°C 78% 3.5 mph S5.6 kmh S 4.6 mph7.4 kmh 30.03 in1016.9 mb - 0.00 in0.0 mm 0.00 in0.0 mm
09:00 PM 65.0°F18.3°C 57.6°F14.2°C 77% 3.5 mph S5.6 kmh S 4.6 mph7.4 kmh 30.03 in1016.9 mb - 0.00 in0.0 mm 0.00 in0.0 mm
08:50 PM 65.3°F18.5°C 57.9°F14.4°C 77% 3.5 mph S5.6 kmh S 4.6 mph7.4 kmh 30.03 in1016.9 mb - 0.00 in0.0 mm 0.00 in0.0 mm
08:40 PM 65.6°F18.7°C 57.9°F14.4°C 76% 2.3 mph S3.7 kmh S 3.5 mph5.6 kmh 30.03 in1016.9 mb - 0.00 in0.0 mm 0.00 in0.0 mm
08:30 PM 65.7°F18.7°C 57.9°F14.4°C 76% 3.5 mph S5.6 kmh S 4.6 mph7.4 kmh 30.03 in1016.9 mb - 0.00 in0.0 mm 0.00 in0.0 mm
08:20 PM 65.9°F18.8°C 58.5°F14.7°C 77% Calm Calm -- 30.02 in1016.6 mb - 0.00 in0.0 mm 0.00 in0.0 mm
08:10 PM 66.4°F19.1°C 58.6°F14.8°C 76% 2.3 mph S3.7 kmh S 3.5 mph5.6 kmh 30.02 in1016.6 mb - 0.00 in0.0 mm 0.00 in0.0 mm
08:00 PM 66.9°F19.4°C 59.1°F15.1°C 76% 3.5 mph SSW5.6 kmh SSW 4.6 mph7.4 kmh 30.02 in1016.6 mb - 0.00 in0.0 mm 0.00 in0.0 mm
07:50 PM 67.7°F19.8°C 59.9°F15.5°C 76% Calm Calm -- 30.02 in1016.6 mb - 0.00 in0.0 mm 0.00 in0.0 mm
07:40 PM 67.8°F19.9°C 60.3°F15.7°C 77% 2.3 mph WNW3.7 kmh WNW 2.3 mph3.7 kmh 30.01 in1016.3 mb - 0.00 in0.0 mm 0.00 in0.0 mm
07:30 PM 67.7°F19.8°C 59.9°F15.5°C 76% Calm Calm -- 30.01 in1016.3 mb - 0.00 in0.0 mm 0.00 in0.0 mm
07:20 PM 67.8°F19.9°C 59.6°F15.3°C 75% 3.5 mph WSW5.6 kmh WSW 4.6 mph7.4 kmh 30.01 in1016.3 mb - 0.00 in0.0 mm 0.00 in0.0 mm
07:10 PM 68.2°F20.1°C 60.0°F15.6°C 75% Calm Calm 1.2 mph1.9 kmh 30.01 in1016.3 mb - 0.00 in0.0 mm 0.00 in0.0 mm
07:00 PM 68.5°F20.3°C 59.9°F15.5°C 74% Calm Calm -- 30.01 in1016.3 mb - 0.00 in0.0 mm 0.00 in0.0 mm
06:50 PM 68.6°F20.3°C 60.0°F15.6°C 74% Calm Calm 1.2 mph1.9 kmh 30.01 in1016.3 mb - 0.00 in0.0 mm 0.00 in0.0 mm
06:40 PM 68.5°F20.3°C 59.5°F15.3°C 73% 5.8 mph WNW9.3 kmh WNW 6.9 mph11.1 kmh 30.01 in1016.3 mb - 0.00 in0.0 mm 0.00 in0.0 mm
06:30 PM 69.1°F20.6°C 59.7°F15.4°C 72% 3.5 mph W5.6 kmh W 4.6 mph7.4 kmh 30.01 in1016.3 mb - 0.00 in0.0 mm 0.00 in0.0 mm
06:20 PM 68.6°F20.3°C 58.8°F14.9°C 71% 5.8 mph WNW9.3 kmh WNW 5.8 mph9.3 kmh 30.01 in1016.3 mb - 0.00 in0.0 mm 0.00 in0.0 mm
06:10 PM 68.6°F20.3°C 59.6°F15.3°C 73% 4.6 mph WNW7.4 kmh WNW 5.8 mph9.3 kmh 30.00 in1015.9 mb - 0.00 in0.0 mm 0.00 in0.0 mm
06:00 PM 68.4°F20.2°C 58.6°F14.8°C 71% 6.9 mph W11.1 kmh W 6.9 mph11.1 kmh 30.01 in1016.3 mb - 0.00 in0.0 mm 0.00 in0.0 mm
05:50 PM 68.9°F20.5°C 59.5°F15.3°C 72% 4.6 mph NW7.4 kmh NW 6.9 mph11.1 kmh 30.00 in1015.9 mb - 0.00 in0.0 mm 0.00 in0.0 mm
05:40 PM 69.5°F20.8°C 60.0°F15.6°C 72% 4.6 mph NW7.4 kmh NW 8.1 mph13.0 kmh 30.01 in1016.3 mb - 0.00 in0.0 mm 0.00 in0.0 mm
05:30 PM 69.2°F20.7°C 59.4°F15.2°C 71% 6.9 mph NW11.1 kmh NW 9.2 mph14.8 kmh 30.01 in1016.3 mb - 0.00 in0.0 mm 0.00 in0.0 mm
05:20 PM 69.4°F20.8°C 58.8°F14.9°C 69% 6.9 mph NNW11.1 kmh NNW 6.9 mph11.1 kmh 30.00 in1015.9 mb - 0.00 in0.0 mm 0.00 in0.0 mm
05:10 PM 69.7°F20.9°C 58.7°F14.8°C 68% 6.9 mph WNW11.1 kmh WNW 10.4 mph16.7 kmh 30.00 in1015.9 mb - 0.00 in0.0 mm 0.00 in0.0 mm
05:00 PM 69.6°F20.9°C 58.1°F14.5°C 67% 6.9 mph NNW11.1 kmh NNW 9.2 mph14.8 kmh 30.00 in1015.9 mb - 0.00 in0.0 mm 0.00 in0.0 mm
04:50 PM 69.8°F21.0°C 58.7°F14.8°C 68% 4.6 mph NW7.4 kmh NW 9.2 mph14.8 kmh 30.01 in1016.3 mb - 0.00 in0.0 mm 0.00 in0.0 mm
04:40 PM 70.3°F21.3°C 59.3°F15.2°C 68% 4.6 mph NW7.4 kmh NW 9.2 mph14.8 kmh 30.01 in1016.3 mb - 0.00 in0.0 mm 0.00 in0.0 mm
04:30 PM 69.8°F21.0°C 57.9°F14.4°C 66% 6.9 mph NW11.1 kmh NW 8.1 mph13.0 kmh 30.01 in1016.3 mb - 0.00 in0.0 mm 0.00 in0.0 mm
04:20 PM 69.6°F20.9°C 57.3°F14.1°C 65% 8.1 mph NW13.0 kmh NW 9.2 mph14.8 kmh 30.02 in1016.6 mb - 0.00 in0.0 mm 0.00 in0.0 mm
04:10 PM 69.5°F20.8°C 57.7°F14.3°C 66% 6.9 mph W11.1 kmh W 11.5 mph18.5 kmh 30.02 in1016.6 mb - 0.00 in0.0 mm 0.00 in0.0 mm
04:00 PM 69.5°F20.8°C 58.5°F14.7°C 68% 6.9 mph WNW11.1 kmh WNW 10.4 mph16.7 kmh 30.02 in1016.6 mb - 0.00 in0.0 mm 0.00 in0.0 mm
03:50 PM 70.0°F21.1°C 59.0°F15.0°C 68% 5.8 mph NW9.3 kmh NW 11.5 mph18.5 kmh 30.02 in1016.6 mb - 0.00 in0.0 mm 0.00 in0.0 mm
03:40 PM 69.6°F20.9°C 57.7°F14.3°C 66% 9.2 mph NW14.8 kmh NW 11.5 mph18.5 kmh 30.02 in1016.6 mb - 0.00 in0.0 mm 0.00 in0.0 mm
03:30 PM 69.2°F20.7°C 59.0°F15.0°C 70% 9.2 mph NW14.8 kmh NW 11.5 mph18.5 kmh 30.02 in1016.6 mb - 0.00 in0.0 mm 0.00 in0.0 mm
03:20 PM 69.3°F20.7°C 59.1°F15.1°C 70% 10.4 mph WNW16.7 kmh WNW 15.0 mph24.1 kmh 30.03 in1016.9 mb - 0.00 in0.0 mm 0.00 in0.0 mm
03:10 PM 69.8°F21.0°C 58.4°F14.7°C 67% 8.1 mph NW13.0 kmh NW 11.5 mph18.5 kmh 30.03 in1016.9 mb - 0.00 in0.0 mm 0.00 in0.0 mm
03:00 PM 68.9°F20.5°C 58.3°F14.6°C 69% 11.5 mph WNW18.5 kmh WNW 15.0 mph24.1 kmh 30.03 in1016.9 mb - 0.00 in0.0 mm 0.00 in0.0 mm
02:50 PM 69.4°F20.8°C 59.2°F15.1°C 70% 11.5 mph NW18.5 kmh NW 15.0 mph24.1 kmh 30.03 in1016.9 mb - 0.00 in0.0 mm 0.00 in0.0 mm
02:40 PM 69.0°F20.6°C 59.6°F15.3°C 72% 12.7 mph W20.4 kmh W 16.1 mph25.9 kmh 30.03 in1016.9 mb - 0.00 in0.0 mm 0.00 in0.0 mm
02:30 PM 69.7°F20.9°C 59.0°F15.0°C 69% 10.4 mph NW16.7 kmh NW 19.6 mph31.5 kmh 30.03 in1016.9 mb - 0.00 in0.0 mm 0.00 in0.0 mm
02:20 PM 69.3°F20.7°C 57.5°F14.2°C 66% 13.8 mph WNW22.2 kmh WNW 17.3 mph27.8 kmh 30.04 in1017.3 mb - 0.00 in0.0 mm 0.00 in0.0 mm
02:10 PM 69.4°F20.8°C 58.4°F14.7°C 68% 13.8 mph NW22.2 kmh NW 16.1 mph25.9 kmh 30.04 in1017.3 mb - 0.00 in0.0 mm 0.00 in0.0 mm
02:00 PM 69.0°F20.6°C 57.6°F14.2°C 67% 13.8 mph WNW22.2 kmh WNW 18.4 mph29.6 kmh 30.04 in1017.3 mb - 0.00 in0.0 mm 0.00 in0.0 mm
01:50 PM 69.0°F20.6°C 57.6°F14.2°C 67% 13.8 mph WNW22.2 kmh WNW 17.3 mph27.8 kmh 30.04 in1017.3 mb - 0.00 in0.0 mm 0.00 in0.0 mm
01:40 PM 69.5°F20.8°C 58.9°F14.9°C 69% 11.5 mph WNW18.5 kmh WNW 16.1 mph25.9 kmh 30.04 in1017.3 mb - 0.00 in0.0 mm 0.00 in0.0 mm
01:30 PM 69.4°F20.8°C 57.9°F14.4°C 67% 13.8 mph WNW22.2 kmh WNW 18.4 mph29.6 kmh 30.05 in1017.6 mb - 0.00 in0.0 mm 0.00 in0.0 mm
01:20 PM 69.0°F20.6°C 58.4°F14.7°C 69% 15.0 mph WNW24.1 kmh WNW 20.7 mph33.3 kmh 30.05 in1017.6 mb - 0.00 in0.0 mm 0.00 in0.0 mm
01:10 PM 69.9°F21.1°C 59.3°F15.2°C 69% 11.5 mph W18.5 kmh W 18.4 mph29.6 kmh 30.05 in1017.6 mb - 0.00 in0.0 mm 0.00 in0.0 mm
01:00 PM 69.0°F20.6°C 57.2°F14.0°C 66% 13.8 mph W22.2 kmh W 17.3 mph27.8 kmh 30.05 in1017.6 mb - 0.00 in0.0 mm 0.00 in0.0 mm
12:50 PM 68.8°F20.4°C 57.4°F14.1°C 67% 15.0 mph WNW24.1 kmh WNW 18.4 mph29.6 kmh 30.06 in1017.9 mb - 0.00 in0.0 mm 0.00 in0.0 mm
12:40 PM 68.9°F20.5°C 57.9°F14.4°C 68% 15.0 mph W24.1 kmh W 19.6 mph31.5 kmh 30.06 in1017.9 mb - 0.00 in0.0 mm 0.00 in0.0 mm
12:30 PM 69.0°F20.6°C 57.2°F14.0°C 66% 15.0 mph W24.1 kmh W 19.6 mph31.5 kmh 30.06 in1017.9 mb - 0.00 in0.0 mm 0.00 in0.0 mm
12:20 PM 69.0°F20.6°C 56.8°F13.8°C 65% 15.0 mph WNW24.1 kmh WNW 18.4 mph29.6 kmh 30.05 in1017.6 mb - 0.00 in0.0 mm 0.00 in0.0 mm
12:10 PM 69.9°F21.1°C 56.8°F13.8°C 63% 11.5 mph W18.5 kmh W 17.3 mph27.8 kmh 30.06 in1017.9 mb - 0.00 in0.0 mm 0.00 in0.0 mm
12:00 PM 69.4°F20.8°C 57.5°F14.2°C 66% 11.5 mph NW18.5 kmh NW 17.3 mph27.8 kmh 30.06 in1017.9 mb - 0.00 in0.0 mm 0.00 in0.0 mm
11:50 AM 69.6°F20.9°C 56.9°F13.8°C 64% 10.4 mph W16.7 kmh W 15.0 mph24.1 kmh 30.06 in1017.9 mb - 0.00 in0.0 mm 0.00 in0.0 mm
11:40 AM 68.9°F20.5°C 55.4°F13.0°C 62% 13.8 mph W22.2 kmh W 17.3 mph27.8 kmh 30.06 in1017.9 mb - 0.00 in0.0 mm 0.00 in0.0 mm
11:30 AM 69.1°F20.6°C 56.4°F13.6°C 64% 10.4 mph W16.7 kmh W 12.7 mph20.4 kmh 30.06 in1017.9 mb - 0.00 in0.0 mm 0.00 in0.0 mm
11:20 AM 69.2°F20.7°C 56.5°F13.6°C 64% 12.7 mph WNW20.4 kmh WNW 18.4 mph29.6 kmh 30.06 in1017.9 mb - 0.00 in0.0 mm 0.00 in0.0 mm
11:10 AM 69.3°F20.7°C 57.9°F14.4°C 67% 12.7 mph W20.4 kmh W 18.4 mph29.6 kmh 30.06 in1017.9 mb - 0.00 in0.0 mm 0.00 in0.0 mm
11:00 AM 68.8°F20.4°C 56.9°F13.8°C 66% 12.7 mph W20.4 kmh W 17.3 mph27.8 kmh 30.06 in1017.9 mb - 0.00 in0.0 mm 0.00 in0.0 mm
10:50 AM 68.3°F20.2°C 55.7°F13.2°C 64% 12.7 mph W20.4 kmh W 17.3 mph27.8 kmh 30.06 in1017.9 mb - 0.00 in0.0 mm 0.00 in0.0 mm
10:40 AM 68.7°F20.4°C 57.3°F14.1°C 67% 12.7 mph W20.4 kmh W 16.1 mph25.9 kmh 30.06 in1017.9 mb - 0.00 in0.0 mm 0.00 in0.0 mm
10:30 AM 68.7°F20.4°C 57.7°F14.3°C 68% 10.4 mph WNW16.7 kmh WNW 12.7 mph20.4 kmh 30.06 in1017.9 mb - 0.00 in0.0 mm 0.00 in0.0 mm
10:20 AM 68.6°F20.3°C 57.2°F14.0°C 67% 11.5 mph W18.5 kmh W 16.1 mph25.9 kmh 30.06 in1017.9 mb - 0.00 in0.0 mm 0.00 in0.0 mm
10:10 AM 67.9°F19.9°C 57.0°F13.9°C 68% 13.8 mph W22.2 kmh W 17.3 mph27.8 kmh 30.06 in1017.9 mb - 0.00 in0.0 mm 0.00 in0.0 mm
10:00 AM 67.8°F19.9°C 56.9°F13.8°C 68% 12.7 mph WNW20.4 kmh WNW 16.1 mph25.9 kmh 30.06 in1017.9 mb - 0.00 in0.0 mm 0.00 in0.0 mm
09:50 AM 68.5°F20.3°C 57.5°F14.2°C 68% 10.4 mph W16.7 kmh W 13.8 mph22.2 kmh 30.06 in1017.9 mb - 0.00 in0.0 mm 0.00 in0.0 mm
09:40 AM 68.0°F20.0°C 57.8°F14.3°C 70% 12.7 mph WNW20.4 kmh WNW 17.3 mph27.8 kmh 30.06 in1017.9 mb - 0.00 in0.0 mm 0.00 in0.0 mm
09:30 AM 67.8°F19.9°C 57.6°F14.2°C 70% 11.5 mph WNW18.5 kmh WNW 15.0 mph24.1 kmh 30.06 in1017.9 mb - 0.00 in0.0 mm 0.00 in0.0 mm
09:20 AM 67.5°F19.7°C 57.8°F14.3°C 71% 9.2 mph W14.8 kmh W 15.0 mph24.1 kmh 30.06 in1017.9 mb - 0.00 in0.0 mm 0.00 in0.0 mm
09:10 AM 67.3°F19.6°C 57.1°F13.9°C 70% 11.5 mph W18.5 kmh W 12.7 mph20.4 kmh 30.05 in1017.6 mb - 0.00 in0.0 mm 0.00 in0.0 mm
09:00 AM 67.9°F19.9°C 57.8°F14.3°C 70% 9.2 mph W14.8 kmh W 11.5 mph18.5 kmh 30.05 in1017.6 mb - 0.00 in0.0 mm 0.00 in0.0 mm
08:50 AM 67.8°F19.9°C 57.7°F14.3°C 70% 9.2 mph WSW14.8 kmh WSW 12.7 mph20.4 kmh 30.05 in1017.6 mb - 0.00 in0.0 mm 0.00 in0.0 mm
08:40 AM 67.8°F19.9°C 57.3°F14.1°C 69% 9.2 mph W14.8 kmh W 12.7 mph20.4 kmh 30.05 in1017.6 mb - 0.00 in0.0 mm 0.00 in0.0 mm
08:30 AM 67.9°F19.9°C 57.3°F14.1°C 69% 11.5 mph W18.5 kmh W 15.0 mph24.1 kmh 30.05 in1017.6 mb - 0.00 in0.0 mm 0.00 in0.0 mm
08:20 AM 67.6°F19.8°C 57.8°F14.3°C 71% 9.2 mph W14.8 kmh W 11.5 mph18.5 kmh 30.05 in1017.6 mb - 0.00 in0.0 mm 0.00 in0.0 mm
08:10 AM 67.1°F19.5°C 57.0°F13.9°C 70% 11.5 mph W18.5 kmh W 13.8 mph22.2 kmh 30.05 in1017.6 mb - 0.00 in0.0 mm 0.00 in0.0 mm
08:00 AM 67.0°F19.4°C 57.6°F14.2°C 72% 11.5 mph WNW18.5 kmh WNW 15.0 mph24.1 kmh 30.05 in1017.6 mb - 0.00 in0.0 mm 0.00 in0.0 mm
07:50 AM 66.7°F19.3°C 57.4°F14.1°C 72% 10.4 mph W16.7 kmh W 13.8 mph22.2 kmh 30.05 in1017.6 mb - 0.00 in0.0 mm 0.00 in0.0 mm
07:40 AM 66.9°F19.4°C 57.9°F14.4°C 73% 9.2 mph W14.8 kmh W 15.0 mph24.1 kmh 30.04 in1017.3 mb - 0.00 in0.0 mm 0.00 in0.0 mm
07:30 AM 66.7°F19.3°C 57.0°F13.9°C 71% 6.9 mph WNW11.1 kmh WNW 12.7 mph20.4 kmh 30.04 in1017.3 mb - 0.00 in0.0 mm 0.00 in0.0 mm
07:20 AM 66.6°F19.2°C 56.9°F13.8°C 71% 6.9 mph NW11.1 kmh NW 10.4 mph16.7 kmh 30.04 in1017.3 mb - 0.00 in0.0 mm 0.00 in0.0 mm
07:10 AM 66.7°F19.3°C 57.0°F13.9°C 71% 4.6 mph W7.4 kmh W 9.2 mph14.8 kmh 30.04 in1017.3 mb - 0.00 in0.0 mm 0.00 in0.0 mm
07:00 AM 66.5°F19.2°C 56.8°F13.8°C 71% 2.3 mph WSW3.7 kmh WSW 4.6 mph7.4 kmh 30.03 in1016.9 mb - 0.00 in0.0 mm 0.00 in0.0 mm
06:50 AM 66.2°F19.0°C 56.5°F13.6°C 71% 3.5 mph WSW5.6 kmh WSW 5.8 mph9.3 kmh 30.03 in1016.9 mb - 0.00 in0.0 mm 0.00 in0.0 mm
06:40 AM 65.8°F18.8°C 56.5°F13.6°C 72% Calm Calm -- 30.03 in1016.9 mb - 0.00 in0.0 mm 0.00 in0.0 mm
06:30 AM 65.2°F18.4°C 55.9°F13.3°C 72% 4.6 mph S7.4 kmh S 5.8 mph9.3 kmh 30.03 in1016.9 mb - 0.00 in0.0 mm 0.00 in0.0 mm
06:20 AM 64.5°F18.1°C 56.1°F13.4°C 74% 3.5 mph SSW5.6 kmh SSW 4.6 mph7.4 kmh 30.03 in1016.9 mb - 0.00 in0.0 mm 0.00 in0.0 mm
06:10 AM 63.7°F17.6°C 55.7°F13.2°C 75% 4.6 mph SSW7.4 kmh SSW 6.9 mph11.1 kmh 30.03 in1016.9 mb - 0.00 in0.0 mm 0.00 in0.0 mm
06:00 AM 63.0°F17.2°C 56.0°F13.3°C 78% 4.6 mph SSW7.4 kmh SSW 6.9 mph11.1 kmh 30.03 in1016.9 mb - 0.00 in0.0 mm 0.00 in0.0 mm
05:50 AM 62.4°F16.9°C 56.2°F13.4°C 80% Calm Calm -- 30.02 in1016.6 mb - 0.00 in0.0 mm 0.00 in0.0 mm
05:40 AM 62.0°F16.7°C 55.8°F13.2°C 80% 4.6 mph S7.4 kmh S 6.9 mph11.1 kmh 30.02 in1016.6 mb - 0.00 in0.0 mm 0.00 in0.0 mm
05:30 AM 61.9°F16.6°C 56.0°F13.3°C 81% 2.3 mph S3.7 kmh S 3.5 mph5.6 kmh 30.03 in1016.9 mb - 0.00 in0.0 mm 0.00 in0.0 mm
05:20 AM 61.3°F16.3°C 55.8°F13.2°C 82% 4.6 mph S7.4 kmh S 5.8 mph9.3 kmh 30.03 in1016.9 mb - 0.00 in0.0 mm 0.00 in0.0 mm
05:10 AM 61.3°F16.3°C 55.4°F13.0°C 81% 4.6 mph S7.4 kmh S 4.6 mph7.4 kmh 30.03 in1016.9 mb - 0.00 in0.0 mm 0.00 in0.0 mm
05:00 AM 61.2°F16.2°C 55.3°F12.9°C 81% 5.8 mph S9.3 kmh S 6.9 mph11.1 kmh 30.03 in1016.9 mb - 0.00 in0.0 mm 0.00 in0.0 mm
04:50 AM 61.5°F16.4°C 55.6°F13.1°C 81% 4.6 mph S7.4 kmh S 5.8 mph9.3 kmh 30.02 in1016.6 mb - 0.00 in0.0 mm 0.00 in0.0 mm
04:40 AM 61.6°F16.4°C 55.4°F13.0°C 80% 4.6 mph S7.4 kmh S 6.9 mph11.1 kmh 30.02 in1016.6 mb - 0.00 in0.0 mm 0.00 in0.0 mm
04:30 AM 62.1°F16.7°C 55.5°F13.1°C 79% 5.8 mph S9.3 kmh S 6.9 mph11.1 kmh 30.02 in1016.6 mb - 0.00 in0.0 mm 0.00 in0.0 mm
04:20 AM 61.9°F16.6°C 55.7°F13.2°C 80% 4.6 mph S7.4 kmh S 6.9 mph11.1 kmh 30.02 in1016.6 mb - 0.00 in0.0 mm 0.00 in0.0 mm
04:10 AM 61.9°F16.6°C 55.3°F12.9°C 79% 5.8 mph S9.3 kmh S 6.9 mph11.1 kmh 30.02 in1016.6 mb - 0.00 in0.0 mm 0.00 in0.0 mm
04:00 AM 62.7°F17.1°C 55.7°F13.2°C 78% 3.5 mph SSW5.6 kmh SSW 5.8 mph9.3 kmh 30.01 in1016.3 mb - 0.00 in0.0 mm 0.00 in0.0 mm
03:50 AM 62.5°F16.9°C 55.6°F13.1°C 78% 4.6 mph SSW7.4 kmh SSW 5.8 mph9.3 kmh 30.01 in1016.3 mb - 0.00 in0.0 mm 0.00 in0.0 mm
03:40 AM 63.1°F17.3°C 55.7°F13.2°C 77% 4.6 mph S7.4 kmh S 5.8 mph9.3 kmh 30.01 in1016.3 mb - 0.00 in0.0 mm 0.00 in0.0 mm
03:30 AM 63.2°F17.3°C 55.9°F13.3°C 77% 3.5 mph S5.6 kmh S 4.6 mph7.4 kmh 30.01 in1016.3 mb - 0.00 in0.0 mm 0.00 in0.0 mm
03:20 AM 63.4°F17.4°C 55.7°F13.2°C 76% 3.5 mph S5.6 kmh S 4.6 mph7.4 kmh 30.01 in1016.3 mb - 0.00 in0.0 mm 0.00 in0.0 mm
03:10 AM 63.4°F17.4°C 55.7°F13.2°C 76% 3.5 mph SSW5.6 kmh SSW 5.8 mph9.3 kmh 30.01 in1016.3 mb - 0.00 in0.0 mm 0.00 in0.0 mm
03:00 AM 63.3°F17.4°C 55.9°F13.3°C 77% 4.6 mph S7.4 kmh S 5.8 mph9.3 kmh 30.02 in1016.6 mb - 0.00 in0.0 mm 0.00 in0.0 mm
02:50 AM 63.5°F17.5°C 56.1°F13.4°C 77% 4.6 mph S7.4 kmh S 5.8 mph9.3 kmh 30.02 in1016.6 mb - 0.00 in0.0 mm 0.00 in0.0 mm
02:40 AM 63.4°F17.4°C 56.1°F13.4°C 77% 4.6 mph SSW7.4 kmh SSW 5.8 mph9.3 kmh 30.02 in1016.6 mb - 0.00 in0.0 mm 0.00 in0.0 mm
02:30 AM 63.9°F17.7°C 56.2°F13.4°C 76% 3.5 mph SSW5.6 kmh SSW 3.5 mph5.6 kmh 30.03 in1016.9 mb - 0.00 in0.0 mm 0.00 in0.0 mm
02:20 AM 63.7°F17.6°C 56.4°F13.6°C 77% 4.6 mph SSW7.4 kmh SSW 5.8 mph9.3 kmh 30.03 in1016.9 mb - 0.00 in0.0 mm 0.00 in0.0 mm
02:10 AM 63.7°F17.6°C 56.3°F13.5°C 77% 4.6 mph SSW7.4 kmh SSW 5.8 mph9.3 kmh 30.03 in1016.9 mb - 0.00 in0.0 mm 0.00 in0.0 mm
02:00 AM 63.6°F17.6°C 55.9°F13.3°C 76% 3.5 mph S5.6 kmh S 4.6 mph7.4 kmh 30.03 in1016.9 mb - 0.00 in0.0 mm 0.00 in0.0 mm
01:50 AM 63.8°F17.7°C 56.1°F13.4°C 76% 1.2 mph S1.9 kmh S 3.5 mph5.6 kmh 30.03 in1016.9 mb - 0.00 in0.0 mm 0.00 in0.0 mm
01:40 AM 63.9°F17.7°C 56.2°F13.4°C 76% Calm Calm -- 30.03 in1016.9 mb - 0.00 in0.0 mm 0.00 in0.0 mm
01:30 AM 64.3°F17.9°C 55.8°F13.2°C 74% 2.3 mph S3.7 kmh S 3.5 mph5.6 kmh 30.03 in1016.9 mb - 0.00 in0.0 mm 0.00 in0.0 mm
01:20 AM 64.6°F18.1°C 56.2°F13.4°C 74% Calm Calm -- 30.03 in1016.9 mb - 0.00 in0.0 mm 0.00 in0.0 mm
01:10 AM 64.6°F18.1°C 55.8°F13.2°C 73% Calm Calm -- 30.03 in1016.9 mb - 0.00 in0.0 mm 0.00 in0.0 mm
01:00 AM 64.7°F18.2°C 55.9°F13.3°C 73% Calm Calm -- 30.03 in1016.9 mb - 0.00 in0.0 mm 0.00 in0.0 mm
12:50 AM 64.8°F18.2°C 55.9°F13.3°C 73% 2.3 mph NW3.7 kmh NW 4.6 mph7.4 kmh 30.03 in1016.9 mb - 0.00 in0.0 mm 0.00 in0.0 mm
12:40 AM 65.1°F18.4°C 56.2°F13.4°C 73% Calm Calm -- 30.03 in1016.9 mb - 0.00 in0.0 mm 0.00 in0.0 mm
12:30 AM 65.2°F18.4°C 56.7°F13.7°C 74% 2.3 mph NNW3.7 kmh NNW 3.5 mph5.6 kmh 30.04 in1017.3 mb - 0.00 in0.0 mm 0.00 in0.0 mm
12:20 AM 65.3°F18.5°C 56.8°F13.8°C 74% 3.5 mph NNW5.6 kmh NNW 6.9 mph11.1 kmh 30.03 in1016.9 mb - 0.00 in0.0 mm 0.00 in0.0 mm
12:10 AM 65.4°F18.6°C 56.5°F13.6°C 73% 3.5 mph NW5.6 kmh NW 4.6 mph7.4 kmh 30.04 in1017.3 mb - 0.00 in0.0 mm 0.00 in0.0 mm
12:00 AM 65.3°F18.5°C 56.4°F13.6°C 73% 4.6 mph NW7.4 kmh NW 5.8 mph9.3 kmh 30.04 in1017.3 mb - 0.00 in0.0 mm 0.00 in0.0 mm